createdAt,value
2017-08-26T00:00:56.857Z,7.00
2017-08-26T00:03:25.216Z,8.33
2017-08-26T00:05:53.532Z,7.40
2017-08-26T00:08:22.116Z,7.07
2017-08-26T00:10:50.358Z,7.00
2017-08-26T00:13:18.748Z,7.97
2017-08-26T00:15:47.114Z,9.90
2017-08-26T00:18:15.538Z,9.97
2017-08-26T00:20:44.395Z,9.73
2017-08-26T00:23:13.922Z,7.40
2017-08-26T00:25:42.197Z,9.20
2017-08-26T00:28:10.549Z,8.03
2017-08-26T00:30:40.059Z,10.00
2017-08-26T00:33:09.281Z,7.17
2017-08-26T00:35:39.130Z,7.37
2017-08-26T00:38:07.868Z,7.33
2017-08-26T00:40:36.839Z,7.20
2017-08-26T00:43:05.441Z,8.20
2017-08-26T00:45:33.675Z,6.90
2017-08-26T00:48:02.630Z,9.30
2017-08-26T00:50:31.063Z,7.13
2017-08-26T00:53:01.207Z,9.10
2017-08-26T00:55:29.521Z,7.60
2017-08-26T00:57:58.394Z,7.97
2017-08-26T01:00:26.961Z,7.37
2017-08-26T01:02:55.495Z,10.43
2017-08-26T01:05:24.446Z,10.43
2017-08-26T01:07:52.872Z,8.73
2017-08-26T01:10:21.285Z,9.87
2017-08-26T01:12:50.142Z,9.67
2017-08-26T01:15:18.783Z,7.87
2017-08-26T01:17:47.447Z,8.10
2017-08-26T01:20:16.110Z,26.30
2017-08-26T01:22:44.387Z,14.13
2017-08-26T01:25:13.406Z,9.03
2017-08-26T01:27:43.933Z,9.63
2017-08-26T01:30:12.813Z,8.30
2017-08-26T01:32:41.273Z,8.87
2017-08-26T01:35:10.812Z,8.80
2017-08-26T01:37:40.241Z,8.10
2017-08-26T01:40:08.730Z,7.70
2017-08-26T01:42:36.947Z,7.90
2017-08-26T01:45:05.273Z,9.60
2017-08-26T01:47:33.554Z,10.57
2017-08-26T01:50:02.211Z,9.97
2017-08-26T01:52:31.851Z,11.70
2017-08-26T01:55:00.319Z,9.90
2017-08-26T01:59:59.309Z,9.57
2017-08-26T02:02:27.598Z,15.63
2017-08-26T02:04:56.006Z,9.70
2017-08-26T02:07:25.048Z,8.90
2017-08-26T02:09:53.280Z,9.50
2017-08-26T02:12:29.099Z,11.73
2017-08-26T02:14:57.785Z,9.00
2017-08-26T02:17:26.238Z,11.33
2017-08-26T02:19:55.124Z,10.60
2017-08-26T02:22:24.151Z,12.33
2017-08-26T02:24:54.670Z,13.13
2017-08-26T02:27:22.986Z,10.07
2017-08-26T02:29:51.204Z,11.93
2017-08-26T02:32:20.219Z,12.10
2017-08-26T02:34:48.505Z,13.33
2017-08-26T02:37:16.877Z,9.93
2017-08-26T02:39:45.907Z,10.53
2017-08-26T02:42:14.250Z,10.60
2017-08-26T02:44:42.425Z,12.00
2017-08-26T02:47:11.313Z,11.97
2017-08-26T02:49:39.518Z,13.00
2017-08-26T02:52:07.877Z,13.37
2017-08-26T02:54:36.165Z,11.37
2017-08-26T02:57:04.410Z,12.27
2017-08-26T02:59:33.406Z,16.30
2017-08-26T03:02:02.390Z,12.40
2017-08-26T03:04:31.491Z,14.87
2017-08-26T03:06:59.919Z,11.33
2017-08-26T03:09:28.399Z,12.30
2017-08-26T03:11:56.669Z,12.67
2017-08-26T03:14:24.886Z,11.23
2017-08-26T03:16:53.320Z,13.87
2017-08-26T03:19:21.706Z,13.43
2017-08-26T03:21:49.924Z,12.57
2017-08-26T03:24:18.508Z,14.20
2017-08-26T03:26:47.575Z,11.57
2017-08-26T03:29:16.153Z,14.03
2017-08-26T03:31:44.514Z,13.03
2017-08-26T03:34:12.742Z,13.70
2017-08-26T03:36:41.035Z,13.37
2017-08-26T03:39:09.402Z,14.53
2017-08-26T03:41:37.740Z,15.03
2017-08-26T03:44:06.860Z,15.47
2017-08-26T03:46:35.997Z,15.17
2017-08-26T03:49:04.260Z,15.23
2017-08-26T03:51:32.659Z,12.80
2017-08-26T03:54:01.069Z,13.63
2017-08-26T03:56:37.078Z,12.20
2017-08-26T03:59:06.013Z,13.50
2017-08-26T04:01:34.299Z,14.20
2017-08-26T04:04:02.573Z,14.23
2017-08-26T04:06:30.898Z,17.17
2017-08-26T04:08:59.267Z,14.43
2017-08-26T04:11:27.700Z,14.03
2017-08-26T04:13:56.116Z,13.97
2017-08-26T04:16:24.369Z,14.90
2017-08-26T04:18:52.808Z,15.17
2017-08-26T04:21:21.447Z,15.50
2017-08-26T04:23:49.898Z,14.87
2017-08-26T04:26:18.313Z,13.93
2017-08-26T04:28:48.467Z,16.70
2017-08-26T04:31:17.198Z,15.60
2017-08-26T04:33:46.998Z,16.47
2017-08-26T04:36:15.371Z,14.10
2017-08-26T04:38:44.066Z,14.30
2017-08-26T04:41:12.377Z,15.43
2017-08-26T04:43:40.927Z,16.50
2017-08-26T04:46:09.475Z,15.50
2017-08-26T04:48:40.668Z,16.57
2017-08-26T04:51:09.264Z,15.60
2017-08-26T04:53:37.505Z,15.40
2017-08-26T04:56:06.205Z,15.47
2017-08-26T04:58:35.014Z,15.37
2017-08-26T05:01:03.540Z,13.93
2017-08-26T05:03:31.824Z,17.90
2017-08-26T05:05:59.996Z,14.43
2017-08-26T05:08:28.274Z,13.23
2017-08-26T05:10:56.495Z,13.70
2017-08-26T05:13:25.607Z,13.07
2017-08-26T05:15:53.917Z,12.93
2017-08-26T05:18:22.756Z,11.97
2017-08-26T05:20:51.040Z,14.30
2017-08-26T05:23:19.362Z,13.27
2017-08-26T05:25:47.591Z,13.17
2017-08-26T05:28:15.859Z,13.37
2017-08-26T05:30:44.104Z,12.30
2017-08-26T05:33:12.503Z,13.63
2017-08-26T05:35:40.762Z,12.97
2017-08-26T05:38:09.092Z,13.63
2017-08-26T05:40:37.438Z,13.77
2017-08-26T05:43:06.367Z,13.17
2017-08-26T05:45:34.615Z,13.30
2017-08-26T05:48:02.877Z,15.97
2017-08-26T05:50:31.131Z,12.37
2017-08-26T05:53:00.394Z,13.70
2017-08-26T05:55:28.603Z,13.00
2017-08-26T05:57:56.861Z,13.43
2017-08-26T06:00:25.161Z,11.60
2017-08-26T06:02:54.213Z,12.57
2017-08-26T06:05:23.117Z,12.20
2017-08-26T06:07:51.361Z,12.87
2017-08-26T06:10:19.628Z,12.13
2017-08-26T06:12:47.901Z,13.53
2017-08-26T06:15:16.209Z,12.87
2017-08-26T06:17:45.137Z,11.27
2017-08-26T06:20:14.039Z,10.37
2017-08-26T06:22:42.237Z,11.10
2017-08-26T06:25:10.510Z,10.40
2017-08-26T06:27:40.038Z,11.23
2017-08-26T06:30:08.398Z,10.80
2017-08-26T06:32:37.000Z,10.83
2017-08-26T06:35:05.272Z,10.87
2017-08-26T06:37:34.187Z,10.87
2017-08-26T06:40:02.388Z,9.03
2017-08-26T06:42:31.400Z,9.50
2017-08-26T06:44:59.697Z,9.83
2017-08-26T06:47:28.120Z,8.80
2017-08-26T06:49:56.363Z,10.30
2017-08-26T06:52:24.617Z,9.30
2017-08-26T06:54:52.941Z,8.30
2017-08-26T06:57:21.233Z,9.90
2017-08-26T06:59:49.451Z,13.57
2017-08-26T07:02:19.792Z,7.30
2017-08-26T07:04:48.039Z,10.00
2017-08-26T07:07:17.467Z,7.10
2017-08-26T07:09:45.647Z,6.00
2017-08-26T07:12:14.219Z,7.07
2017-08-26T07:14:42.428Z,6.00
2017-08-26T07:17:11.160Z,5.73
2017-08-26T07:19:40.277Z,6.17
2017-08-26T07:22:08.492Z,5.97
2017-08-26T07:24:36.780Z,10.23
2017-08-26T07:27:05.782Z,9.70
2017-08-26T07:29:34.124Z,6.60
2017-08-26T07:32:02.614Z,8.90
2017-08-26T07:34:31.224Z,12.70
2017-08-26T07:36:59.751Z,9.13
2017-08-26T07:39:27.953Z,13.40
2017-08-26T07:41:56.196Z,9.30
2017-08-26T07:44:25.079Z,30.50
2017-08-26T07:46:53.361Z,14.10
2017-08-26T07:49:21.741Z,19.90
2017-08-26T07:51:57.086Z,5.93
2017-08-26T07:54:25.311Z,15.33
2017-08-26T07:56:53.558Z,15.60
2017-08-26T07:59:21.780Z,6.80
2017-08-26T08:01:50.108Z,8.10
2017-08-26T08:04:18.870Z,5.20
2017-08-26T08:06:47.244Z,6.33
2017-08-26T08:09:15.462Z,28.10
2017-08-26T08:11:43.701Z,6.23
2017-08-26T08:14:12.294Z,6.40
2017-08-26T08:16:40.870Z,5.93
2017-08-26T08:19:09.913Z,6.87
2017-08-26T08:21:38.365Z,12.10
2017-08-26T08:24:07.220Z,5.13
2017-08-26T08:26:35.505Z,11.03
2017-08-26T08:29:04.613Z,17.67
2017-08-26T08:31:35.794Z,12.20
2017-08-26T08:34:03.949Z,8.30
2017-08-26T08:36:32.145Z,11.50
2017-08-26T08:39:00.502Z,11.13
2017-08-26T08:41:29.487Z,9.97
2017-08-26T08:43:58.073Z,7.30
2017-08-26T08:46:26.270Z,7.43
2017-08-26T08:48:54.546Z,5.80
2017-08-26T08:51:23.727Z,5.83
2017-08-26T08:53:53.012Z,7.33
2017-08-26T08:56:21.278Z,4.97
2017-08-26T08:58:49.461Z,4.83
2017-08-26T09:01:17.688Z,7.40
2017-08-26T09:03:47.262Z,3.97
2017-08-26T09:06:15.597Z,5.47
2017-08-26T09:08:43.758Z,5.90
2017-08-26T09:11:11.928Z,5.27
2017-08-26T09:13:40.144Z,4.57
2017-08-26T09:16:14.436Z,4.30
2017-08-26T09:18:43.657Z,11.53
2017-08-26T09:21:13.802Z,18.23
2017-08-26T09:23:42.001Z,5.13
2017-08-26T09:26:10.406Z,13.77
2017-08-26T09:28:38.604Z,10.53
2017-08-26T09:31:07.699Z,5.87
2017-08-26T09:33:36.032Z,6.33
2017-08-26T09:36:04.880Z,18.00
2017-08-26T09:38:33.855Z,6.57
2017-08-26T09:41:02.174Z,17.53
2017-08-26T09:43:30.538Z,7.13
2017-08-26T09:45:59.008Z,5.37
2017-08-26T09:48:27.398Z,7.43
2017-08-26T09:50:55.643Z,7.20
2017-08-26T09:53:23.934Z,5.07
2017-08-26T09:55:52.864Z,4.53
2017-08-26T09:58:21.857Z,4.87
2017-08-26T10:00:50.146Z,3.37
2017-08-26T10:03:18.493Z,3.57
2017-08-26T10:05:46.776Z,3.07
2017-08-26T10:08:15.027Z,4.50
2017-08-26T10:10:43.713Z,6.23
2017-08-26T10:13:11.927Z,5.20
2017-08-26T10:15:40.196Z,9.23
2017-08-26T10:18:08.777Z,4.37
2017-08-26T10:20:37.924Z,7.40
2017-08-26T10:23:07.007Z,7.67
2017-08-26T10:25:35.157Z,4.60
2017-08-26T10:28:03.347Z,4.63
2017-08-26T10:30:31.505Z,7.03
2017-08-26T10:32:59.741Z,4.77
2017-08-26T10:35:27.935Z,4.10
2017-08-26T10:37:56.454Z,3.50
2017-08-26T10:40:24.993Z,7.87
2017-08-26T10:42:53.706Z,3.90
2017-08-26T10:45:22.900Z,4.47
2017-08-26T10:47:51.404Z,4.33
2017-08-26T10:50:19.667Z,3.43
2017-08-26T10:52:47.941Z,3.40
2017-08-26T10:55:16.484Z,5.57
2017-08-26T10:57:44.672Z,4.37
2017-08-26T11:00:12.983Z,4.13
2017-08-26T11:02:41.183Z,4.10
2017-08-26T11:05:09.366Z,9.27
2017-08-26T11:07:38.019Z,7.00
2017-08-26T11:10:06.204Z,7.57
2017-08-26T11:12:34.656Z,6.97
2017-08-26T11:15:02.912Z,6.70
2017-08-26T11:17:31.125Z,6.40
2017-08-26T11:19:59.574Z,5.23
2017-08-26T11:22:27.849Z,5.27
2017-08-26T11:24:56.238Z,3.70
2017-08-26T11:27:24.552Z,9.27
2017-08-26T11:29:52.841Z,4.10
2017-08-26T11:32:21.045Z,9.20
2017-08-26T11:34:49.266Z,8.67
2017-08-26T11:37:17.542Z,6.83
2017-08-26T11:39:45.742Z,10.73
2017-08-26T11:42:13.980Z,6.10
2017-08-26T11:44:42.297Z,3.90
2017-08-26T11:47:10.552Z,4.63
2017-08-26T11:49:38.768Z,5.23
2017-08-26T11:52:06.948Z,5.20
2017-08-26T11:54:35.123Z,6.50
2017-08-26T11:57:03.282Z,3.73
2017-08-26T11:59:31.607Z,4.03
2017-08-26T12:01:59.772Z,7.90
2017-08-26T12:04:28.579Z,3.50
2017-08-26T12:06:57.164Z,4.30
2017-08-26T12:09:25.452Z,4.30
2017-08-26T12:11:54.226Z,5.03
2017-08-26T12:14:22.429Z,3.87
2017-08-26T12:16:50.651Z,4.07
2017-08-26T12:19:18.865Z,4.70
2017-08-26T12:21:48.103Z,4.30
2017-08-26T12:24:16.396Z,4.07
2017-08-26T12:26:44.682Z,5.03
2017-08-26T12:29:14.746Z,4.40
2017-08-26T12:31:44.114Z,4.83
2017-08-26T12:34:13.012Z,8.10
2017-08-26T12:36:42.975Z,5.97
2017-08-26T12:39:12.489Z,4.60
2017-08-26T12:41:41.634Z,5.47
2017-08-26T12:44:10.080Z,5.03
2017-08-26T12:46:39.163Z,4.60
2017-08-26T12:49:07.493Z,5.10
2017-08-26T12:51:36.160Z,6.70
2017-08-26T12:54:05.860Z,5.30
2017-08-26T12:56:34.658Z,4.30
2017-08-26T12:59:03.575Z,3.93
2017-08-26T13:01:31.882Z,4.30
2017-08-26T13:04:00.066Z,4.53
2017-08-26T13:06:28.356Z,6.53
2017-08-26T13:08:57.195Z,3.63
2017-08-26T13:11:26.295Z,4.87
2017-08-26T13:13:54.887Z,4.70
2017-08-26T13:16:23.114Z,6.33
2017-08-26T13:18:51.428Z,4.37
2017-08-26T13:21:19.702Z,5.70
2017-08-26T13:23:47.869Z,4.03
2017-08-26T13:26:16.169Z,4.10
2017-08-26T13:28:44.591Z,3.80
2017-08-26T13:31:12.826Z,4.83
2017-08-26T13:33:41.108Z,5.13
2017-08-26T13:36:09.407Z,3.80
2017-08-26T13:38:37.606Z,7.50
2017-08-26T13:41:05.923Z,6.20
2017-08-26T13:43:34.136Z,2.80
2017-08-26T13:46:02.357Z,5.80
2017-08-26T13:48:30.499Z,3.10
2017-08-26T13:50:58.708Z,4.43
2017-08-26T13:53:26.875Z,4.27
2017-08-26T13:55:55.049Z,3.43
2017-08-26T13:58:23.195Z,3.40
2017-08-26T14:00:51.391Z,4.63
2017-08-26T14:03:20.036Z,3.67
2017-08-26T14:05:48.213Z,5.00
2017-08-26T14:08:17.120Z,4.13
2017-08-26T14:10:45.276Z,5.47
2017-08-26T14:13:13.445Z,5.00
2017-08-26T14:15:41.591Z,3.50
2017-08-26T14:18:09.758Z,3.60
2017-08-26T14:20:37.893Z,3.97
2017-08-26T14:23:06.079Z,3.23
2017-08-26T14:25:34.275Z,5.13
2017-08-26T14:28:02.535Z,4.17
2017-08-26T14:30:30.734Z,4.87
2017-08-26T14:32:58.903Z,3.90
2017-08-26T14:35:27.125Z,6.00
2017-08-26T14:37:55.293Z,3.47
2017-08-26T14:40:23.833Z,4.20
2017-08-26T14:42:52.078Z,3.80
2017-08-26T14:45:20.287Z,5.80
2017-08-26T14:47:49.079Z,5.60
2017-08-26T14:50:17.818Z,3.87
2017-08-26T14:52:46.185Z,4.13
2017-08-26T14:55:14.352Z,5.50
2017-08-26T14:57:42.544Z,3.77
2017-08-26T15:00:10.755Z,5.10
2017-08-26T15:02:38.977Z,3.40
2017-08-26T15:05:07.171Z,3.60
2017-08-26T15:07:36.206Z,7.67
2017-08-26T15:10:04.339Z,5.87
2017-08-26T15:12:32.510Z,3.47
2017-08-26T15:15:00.659Z,3.50
2017-08-26T15:17:29.653Z,2.90
2017-08-26T15:19:58.142Z,3.83
2017-08-26T15:22:26.353Z,53.77
2017-08-26T15:24:54.624Z,7.73
2017-08-26T15:27:22.933Z,3.30
2017-08-26T15:29:51.167Z,4.23
2017-08-26T15:32:19.390Z,5.70
2017-08-26T15:34:52.687Z,4.20
2017-08-26T15:37:22.573Z,5.17
2017-08-26T15:39:50.799Z,6.20
2017-08-26T15:42:19.037Z,4.13
2017-08-26T15:44:47.273Z,3.77
2017-08-26T15:47:15.510Z,11.43
2017-08-26T15:49:44.494Z,3.80
2017-08-26T15:52:12.687Z,7.00
2017-08-26T15:54:40.926Z,4.63
2017-08-26T15:57:09.148Z,4.73
2017-08-26T15:59:37.418Z,4.77
2017-08-26T16:02:05.829Z,4.33
2017-08-26T16:04:35.048Z,5.10
2017-08-26T16:07:03.734Z,4.20
2017-08-26T16:09:31.977Z,4.17
2017-08-26T16:12:00.297Z,3.97
2017-08-26T16:14:28.706Z,4.10
2017-08-26T16:16:56.968Z,4.73
2017-08-26T16:19:25.148Z,5.37
2017-08-26T16:21:53.322Z,7.40
2017-08-26T16:24:21.435Z,4.23
2017-08-26T16:26:49.661Z,4.87
2017-08-26T16:29:17.861Z,4.30
2017-08-26T16:31:46.066Z,5.60
2017-08-26T16:34:14.266Z,19.40
2017-08-26T16:36:42.505Z,22.40
2017-08-26T16:39:11.683Z,26.00
2017-08-26T16:41:39.919Z,117.80
2017-08-26T16:44:08.954Z,63.20
2017-08-26T16:46:37.228Z,144.30
2017-08-26T16:49:05.929Z,65.83
2017-08-26T16:51:34.089Z,59.30
2017-08-26T16:54:02.495Z,86.00
2017-08-26T16:56:30.830Z,37.23
2017-08-26T16:58:59.044Z,32.70
2017-08-26T17:01:27.250Z,33.03
2017-08-26T17:03:55.497Z,10.47
2017-08-26T17:06:23.870Z,14.13
2017-08-26T17:08:52.428Z,8.00
2017-08-26T17:11:20.898Z,10.13
2017-08-26T17:13:49.171Z,15.93
2017-08-26T17:16:17.371Z,5.20
2017-08-26T17:18:45.865Z,5.77
2017-08-26T17:21:14.276Z,12.77
2017-08-26T17:23:42.452Z,111.10
2017-08-26T17:26:10.894Z,21.23
2017-08-26T17:28:39.924Z,67.63
2017-08-26T17:31:08.072Z,62.57
2017-08-26T17:33:36.343Z,97.47
2017-08-26T17:36:05.420Z,29.53
2017-08-26T17:38:33.817Z,35.53
2017-08-26T17:41:02.088Z,14.53
2017-08-26T17:43:30.505Z,29.27
2017-08-26T17:45:58.736Z,14.60
2017-08-26T17:48:26.896Z,11.80
2017-08-26T17:50:55.106Z,17.90
2017-08-26T17:53:23.608Z,8.77
2017-08-26T17:55:52.507Z,8.50
2017-08-26T17:58:21.611Z,79.77
2017-08-26T18:00:49.865Z,50.33
2017-08-26T18:03:18.054Z,98.37
2017-08-26T18:05:46.235Z,77.77
2017-08-26T18:08:14.447Z,131.90
2017-08-26T18:10:42.622Z,142.97
2017-08-26T18:13:10.906Z,105.83
2017-08-26T18:15:47.234Z,84.67
2017-08-26T18:18:18.480Z,66.10
2017-08-26T18:20:51.372Z,35.70
2017-08-26T18:23:21.848Z,25.90
2017-08-26T18:25:50.053Z,15.70
2017-08-26T18:28:18.369Z,10.00
2017-08-26T18:30:46.555Z,9.77
2017-08-26T18:33:14.807Z,10.33
2017-08-26T18:35:42.962Z,5.20
2017-08-26T18:38:11.130Z,6.80
2017-08-26T18:40:39.328Z,8.80
2017-08-26T18:43:07.550Z,5.17
2017-08-26T18:45:35.774Z,5.50
2017-08-26T18:48:03.897Z,5.17
2017-08-26T18:50:32.187Z,5.43
2017-08-26T18:53:00.325Z,7.60
2017-08-26T18:55:28.682Z,7.27
2017-08-26T18:57:56.893Z,8.50
2017-08-26T19:00:25.080Z,6.40
2017-08-26T19:02:53.240Z,5.23
2017-08-26T19:05:21.426Z,7.03
2017-08-26T19:07:51.132Z,7.07
2017-08-26T19:10:20.420Z,5.83
2017-08-26T19:12:48.787Z,8.90
2017-08-26T19:15:17.014Z,7.20
2017-08-26T19:17:45.250Z,9.50
2017-08-26T19:20:13.521Z,13.20
2017-08-26T19:22:42.006Z,13.50
2017-08-26T19:25:10.177Z,13.13
2017-08-26T19:27:38.318Z,8.00
2017-08-26T19:30:06.527Z,13.80
2017-08-26T19:32:34.726Z,8.07
2017-08-26T19:35:03.056Z,10.40
2017-08-26T19:37:32.033Z,8.87
2017-08-26T19:40:00.392Z,9.37
2017-08-26T19:42:28.664Z,8.97
2017-08-26T19:44:56.899Z,10.30
2017-08-26T19:47:25.158Z,8.13
2017-08-26T19:49:53.393Z,7.47
2017-08-26T19:52:21.599Z,8.97
2017-08-26T19:54:49.772Z,9.20
2017-08-26T19:57:18.011Z,10.77
2017-08-26T19:59:46.660Z,8.67
2017-08-26T20:02:14.813Z,15.13
2017-08-26T20:04:43.070Z,10.10
2017-08-26T20:07:11.216Z,7.30
2017-08-26T20:09:39.423Z,10.57
2017-08-26T20:12:07.719Z,6.10
2017-08-26T20:14:35.960Z,5.73
2017-08-26T20:17:04.118Z,7.03
2017-08-26T20:19:32.355Z,7.33
2017-08-26T20:22:00.516Z,6.57
2017-08-26T20:24:28.769Z,7.37
2017-08-26T20:26:56.957Z,7.23
2017-08-26T20:29:25.128Z,6.00
2017-08-26T20:31:53.371Z,10.70
2017-08-26T20:34:21.579Z,8.03
2017-08-26T20:36:49.817Z,6.17
2017-08-26T20:39:18.806Z,7.43
2017-08-26T20:41:47.558Z,7.77
2017-08-26T20:44:15.710Z,8.80
2017-08-26T20:46:44.666Z,6.43
2017-08-26T20:49:12.846Z,7.10
2017-08-26T20:51:41.103Z,8.47
2017-08-26T20:54:09.283Z,10.00
2017-08-26T20:56:37.563Z,7.87
2017-08-26T20:59:05.788Z,8.23
2017-08-26T21:01:33.940Z,8.37
2017-08-26T21:04:02.534Z,8.17
2017-08-26T21:06:30.980Z,7.80
2017-08-26T21:08:59.295Z,9.43
2017-08-26T21:11:27.510Z,9.33
2017-08-26T21:13:55.729Z,7.60
2017-08-26T21:16:23.934Z,8.47
2017-08-26T21:18:52.109Z,7.20
2017-08-26T21:21:20.278Z,9.60
2017-08-26T21:23:48.515Z,7.33
2017-08-26T21:26:16.705Z,8.17
2017-08-26T21:28:45.001Z,7.40
2017-08-26T21:31:13.153Z,8.87
2017-08-26T21:33:41.353Z,15.30
2017-08-26T21:36:09.500Z,12.57
2017-08-26T21:38:37.752Z,10.73
2017-08-26T21:41:06.003Z,10.20
2017-08-26T21:43:34.155Z,7.70
2017-08-26T21:46:02.330Z,9.90
2017-08-26T21:48:30.536Z,9.23
2017-08-26T21:50:58.724Z,10.97
2017-08-26T21:53:26.868Z,14.40
2017-08-26T21:55:55.043Z,9.00
2017-08-26T21:58:23.194Z,12.33
2017-08-26T22:00:51.399Z,10.63
2017-08-26T22:03:19.567Z,11.03
2017-08-26T22:05:48.542Z,13.53
2017-08-26T22:08:16.667Z,8.33
2017-08-26T22:10:44.845Z,8.33
2017-08-26T22:13:13.221Z,14.03
2017-08-26T22:15:41.364Z,13.13
2017-08-26T22:18:09.585Z,10.87
2017-08-26T22:20:37.802Z,11.53
2017-08-26T22:23:06.071Z,12.30
2017-08-26T22:25:34.249Z,11.00
2017-08-26T22:28:02.432Z,9.43
2017-08-26T22:30:30.725Z,13.80
2017-08-26T22:33:00.649Z,10.77
2017-08-26T22:35:28.838Z,11.90
2017-08-26T22:37:57.054Z,9.93
2017-08-26T22:40:25.288Z,12.57
2017-08-26T22:42:53.461Z,12.90
2017-08-26T22:45:21.661Z,10.17
2017-08-26T22:47:49.839Z,12.07
2017-08-26T22:50:18.040Z,9.83
2017-08-26T22:52:46.218Z,10.30
2017-08-26T22:55:14.350Z,11.47
2017-08-26T22:57:42.478Z,11.47
2017-08-26T23:00:11.422Z,10.53
2017-08-26T23:02:39.576Z,10.50
2017-08-26T23:05:07.787Z,12.90
2017-08-26T23:07:36.048Z,14.10
2017-08-26T23:10:04.257Z,13.70
2017-08-26T23:12:32.469Z,11.70
2017-08-26T23:15:01.492Z,14.07
2017-08-26T23:17:30.777Z,12.53
2017-08-26T23:22:22.738Z,12.77
2017-08-26T23:24:50.869Z,11.23
2017-08-26T23:27:19.069Z,11.80
2017-08-26T23:29:47.505Z,10.23
2017-08-26T23:32:15.776Z,14.30
2017-08-26T23:34:44.976Z,12.33
2017-08-26T23:37:14.075Z,13.67
2017-08-26T23:39:42.331Z,20.40
2017-08-26T23:42:10.660Z,12.90
2017-08-26T23:44:39.085Z,13.13
2017-08-26T23:47:07.315Z,12.80
2017-08-26T23:49:35.562Z,12.67
2017-08-26T23:52:04.423Z,17.10
2017-08-26T23:54:33.165Z,12.47
2017-08-26T23:57:02.005Z,12.07
2017-08-26T23:59:30.465Z,16.33
